Time;durP1;ratioP1;P1;durP2;ratioP2;P2;SDS_P1;SDS_P2;PMS_P1;PMS_P2;Temp;Humidity;BMP_temperature;BMP_pressure;BME280_temperature;BME280_humidity;BME280_pressure;Samples;Min_cycle;Max_cycle;Signal;HPM_P1;HPM_P2
2022/12/18 00:02:12;;;;;;;92.95;48.40;;;;;;;;;;4931571;29;20082;-78
2022/12/18 00:04:39;;;;;;;91.55;48.55;;;;;;;;;;4946877;28;20048;-78
2022/12/18 00:07:05;;;;;;;96.18;49.72;;;;;;;;;;4931853;29;20083;-79
2022/12/18 00:09:32;;;;;;;89.57;47.28;;;;;;;;;;4946745;28;20134;-79
2022/12/18 00:12:06;;;;;;;89.88;47.40;;;;;;;;;;4947519;29;20059;-79
2022/12/18 00:14:41;;;;;;;93.78;49.08;;;;;;;;;;4918127;29;20082;-78
2022/12/18 00:17:08;;;;;;;93.63;48.67;;;;;;;;;;4930847;29;20051;-79
2022/12/18 00:19:35;;;;;;;91.70;48.45;;;;;;;;;;4947311;29;20063;-78
2022/12/18 00:22:02;;;;;;;88.53;46.72;;;;;;;;;;4948449;29;20459;-79
2022/12/18 00:24:29;;;;;;;89.60;46.92;;;;;;;;;;4916784;29;20043;-78
2022/12/18 00:26:55;;;;;;;97.10;48.67;;;;;;;;;;4931355;29;20074;-78
2022/12/18 00:29:22;;;;;;;85.95;45.47;;;;;;;;;;4936603;29;20047;-78
2022/12/18 00:31:49;;;;;;;87.50;48.42;;;;;;;;;;4932035;29;20058;-78
2022/12/18 00:34:16;;;;;;;84.72;46.67;;;;;;;;;;4948545;29;20062;-78
2022/12/18 00:36:43;;;;;;;89.78;48.53;;;;;;;;;;4914807;29;20078;-79
2022/12/18 00:39:10;;;;;;;88.22;47.97;;;;;;;;;;4916686;29;20051;-78
2022/12/18 00:44:22;;;;;;;83.78;46.72;;;;;;;;;;4948242;28;20051;-78
2022/12/18 00:46:49;;;;;;;79.70;44.17;;;;;;;;;;4931862;29;20051;-78
2022/12/18 00:49:17;;;;;;;79.90;45.88;;;;;;;;;;4930487;29;20063;-78
2022/12/18 00:51:45;;;;;;;79.85;45.25;;;;;;;;;;4916345;29;20055;-78
2022/12/18 00:54:11;;;;;;;86.03;47.83;;;;;;;;;;4915698;29;20054;-78
2022/12/18 00:56:38;;;;;;;87.80;45.78;;;;;;;;;;4946998;28;20500;-78
2022/12/18 00:59:15;;;;;;;89.25;47.20;;;;;;;;;;4946833;28;20059;-78
2022/12/18 01:01:42;;;;;;;83.68;46.72;;;;;;;;;;4945920;29;20616;-77
2022/12/18 01:04:09;;;;;;;84.47;47.15;;;;;;;;;;4934015;28;20078;-78
2022/12/18 01:06:36;;;;;;;84.30;46.80;;;;;;;;;;4932736;29;20055;-78
2022/12/18 01:09:03;;;;;;;83.75;47.65;;;;;;;;;;4946912;29;20063;-79
2022/12/18 01:11:30;;;;;;;81.35;46.90;;;;;;;;;;4930704;29;20063;-79
2022/12/18 01:13:57;;;;;;;78.60;45.88;;;;;;;;;;4916032;29;20054;-79
2022/12/18 01:16:23;;;;;;;81.20;45.67;;;;;;;;;;4930911;29;20075;-79
2022/12/18 01:18:54;;;;;;;86.00;45.58;;;;;;;;;;4947204;28;20067;-79
2022/12/18 01:21:21;;;;;;;82.35;44.90;;;;;;;;;;4963343;28;20085;-78
2022/12/18 01:23:52;;;;;;;78.38;43.70;;;;;;;;;;4930687;29;20066;-78
2022/12/18 01:26:18;;;;;;;81.35;43.50;;;;;;;;;;4930522;29;20134;-78
2022/12/18 01:28:45;;;;;;;81.25;44.70;;;;;;;;;;4914272;29;20070;-77
2022/12/18 01:31:27;;;;;;;73.68;42.28;;;;;;;;;;4930537;29;20063;-77
2022/12/18 01:33:55;;;;;;;85.93;45.88;;;;;;;;;;4918056;29;20075;-79
2022/12/18 01:36:30;;;;;;;75.57;41.50;;;;;;;;;;4923015;29;20487;-79
2022/12/18 01:38:58;;;;;;;74.95;42.53;;;;;;;;;;4921413;29;20051;-79
2022/12/18 01:42:11;;;;;;;79.50;43.03;;;;;;;;;;4921274;28;20071;-79
2022/12/18 01:44:46;;;;;;;69.88;38.65;;;;;;;;;;4936827;29;20051;-80
2022/12/18 01:47:52;;;;;;;75.75;41.20;;;;;;;;;;4957402;28;20066;-80
2022/12/18 01:50:22;;;;;;;80.30;43.83;;;;;;;;;;4960110;29;20101;-80
2022/12/18 01:52:56;;;;;;;80.57;41.63;;;;;;;;;;4953429;29;20114;-81
2022/12/18 01:55:25;;;;;;;72.63;41.00;;;;;;;;;;4956485;28;20047;-80
2022/12/18 01:57:56;;;;;;;76.65;42.00;;;;;;;;;;4948745;29;20051;-79
2022/12/18 02:00:23;;;;;;;77.47;43.10;;;;;;;;;;4950731;29;20038;-79
2022/12/18 02:02:50;;;;;;;82.05;42.63;;;;;;;;;;4950291;29;20066;-79
2022/12/18 02:05:22;;;;;;;79.28;42.25;;;;;;;;;;4945398;29;20553;-79
2022/12/18 02:08:14;;;;;;;89.65;45.50;;;;;;;;;;4950888;28;20054;-80
2022/12/18 02:10:53;;;;;;;84.40;44.25;;;;;;;;;;4952140;29;20062;-79
2022/12/18 02:13:40;;;;;;;86.47;42.90;;;;;;;;;;4947083;29;20562;-79
2022/12/18 02:16:39;;;;;;;83.45;44.03;;;;;;;;;;4934027;29;20393;-79
2022/12/18 02:19:24;;;;;;;83.88;42.45;;;;;;;;;;4951405;29;21468;-79
2022/12/18 02:22:17;;;;;;;88.75;44.03;;;;;;;;;;4951021;28;20047;-79
2022/12/18 02:25:12;;;;;;;82.60;41.75;;;;;;;;;;4909768;29;20062;-78
2022/12/18 02:27:39;;;;;;;81.90;42.08;;;;;;;;;;4940511;29;20059;-79
2022/12/18 02:30:06;;;;;;;80.28;41.85;;;;;;;;;;4935650;29;20055;-79
2022/12/18 02:32:40;;;;;;;81.43;41.78;;;;;;;;;;4919540;29;20086;-79
2022/12/18 02:35:11;;;;;;;66.40;34.15;;;;;;;;;;4935759;29;20052;-79
2022/12/18 02:37:37;;;;;;;73.50;41.17;;;;;;;;;;4934468;28;20054;-78
2022/12/18 02:40:05;;;;;;;83.93;43.83;;;;;;;;;;4919530;29;20070;-79
2022/12/18 02:42:32;;;;;;;76.55;41.53;;;;;;;;;;4951025;29;20055;-79
2022/12/18 02:44:58;;;;;;;78.03;43.47;;;;;;;;;;4951298;29;20048;-80
2022/12/18 02:47:30;;;;;;;81.82;42.33;;;;;;;;;;4919298;29;20062;-78
2022/12/18 02:50:09;;;;;;;76.47;42.25;;;;;;;;;;4934498;29;20047;-79
2022/12/18 02:52:36;;;;;;;81.10;42.63;;;;;;;;;;4966326;28;20081;-79
2022/12/18 02:55:27;;;;;;;79.60;42.33;;;;;;;;;;4950755;29;20050;-79
2022/12/18 02:58:03;;;;;;;78.28;42.78;;;;;;;;;;4951707;28;20051;-79
2022/12/18 03:00:40;;;;;;;76.28;42.90;;;;;;;;;;4919021;29;20047;-79
2022/12/18 03:03:11;;;;;;;72.45;41.65;;;;;;;;;;4949069;29;20093;-79
2022/12/18 03:05:52;;;;;;;75.10;41.17;;;;;;;;;;4931922;29;20074;-79
2022/12/18 03:08:22;;;;;;;74.07;40.85;;;;;;;;;;4931871;29;20066;-79
2022/12/18 03:11:10;;;;;;;71.35;39.67;;;;;;;;;;4948345;28;20055;-79
2022/12/18 03:13:52;;;;;;;72.60;41.42;;;;;;;;;;4934554;29;20086;-79
2022/12/18 03:16:24;;;;;;;73.70;40.53;;;;;;;;;;4932989;29;20122;-79
2022/12/18 03:19:01;;;;;;;72.65;39.03;;;;;;;;;;4948127;29;20055;-79
2022/12/18 03:21:40;;;;;;;66.90;38.92;;;;;;;;;;4932278;29;20102;-78
2022/12/18 03:24:08;;;;;;;70.07;39.83;;;;;;;;;;4932244;29;20059;-78
2022/12/18 03:26:35;;;;;;;68.75;37.30;;;;;;;;;;4916658;29;20735;-78
2022/12/18 03:29:07;;;;;;;69.40;39.13;;;;;;;;;;4915597;29;20154;-78
2022/12/18 03:31:34;;;;;;;69.63;40.30;;;;;;;;;;4916742;29;20051;-78
2022/12/18 03:34:02;;;;;;;71.47;38.65;;;;;;;;;;4936134;29;20058;-78
2022/12/18 03:36:29;;;;;;;72.63;39.97;;;;;;;;;;4918603;29;20055;-77
2022/12/18 03:38:55;;;;;;;70.38;40.30;;;;;;;;;;4916997;29;20131;-77
2022/12/18 03:41:33;;;;;;;73.15;39.67;;;;;;;;;;4934353;29;20059;-77
2022/12/18 03:44:18;;;;;;;72.30;39.45;;;;;;;;;;4965072;29;20062;-77
2022/12/18 03:47:03;;;;;;;72.95;39.10;;;;;;;;;;4952675;28;20043;-77
2022/12/18 03:49:40;;;;;;;70.82;39.30;;;;;;;;;;4967738;28;20074;-77
2022/12/18 03:52:10;;;;;;;80.43;41.45;;;;;;;;;;4937857;29;20048;-77
2022/12/18 03:54:37;;;;;;;68.05;38.45;;;;;;;;;;4938867;29;20051;-77
2022/12/18 03:57:19;;;;;;;69.03;38.03;;;;;;;;;;4955527;29;20038;-77
2022/12/18 03:59:47;;;;;;;58.43;31.77;;;;;;;;;;4966521;29;20058;-77
2022/12/18 04:02:15;;;;;;;70.00;40.97;;;;;;;;;;4954441;29;20051;-76
2022/12/18 04:04:42;;;;;;;69.90;40.40;;;;;;;;;;4946612;28;20055;-77
2022/12/18 04:07:27;;;;;;;68.07;38.83;;;;;;;;;;4943623;29;20050;-77
2022/12/18 04:09:56;;;;;;;67.95;38.20;;;;;;;;;;4933895;29;20515;-78
2022/12/18 04:12:26;;;;;;;63.55;36.67;;;;;;;;;;4931473;29;20070;-78
2022/12/18 04:14:52;;;;;;;62.15;34.67;;;;;;;;;;4947803;29;20405;-77
2022/12/18 04:17:20;;;;;;;62.22;36.88;;;;;;;;;;4947484;28;20055;-77
2022/12/18 04:19:46;;;;;;;65.43;35.80;;;;;;;;;;4947853;28;20124;-79
2022/12/18 04:22:13;;;;;;;58.38;33.38;;;;;;;;;;4933078;29;20052;-79
2022/12/18 04:24:40;;;;;;;62.75;34.80;;;;;;;;;;4933670;29;20583;-78
2022/12/18 04:27:06;;;;;;;64.07;34.20;;;;;;;;;;4934467;29;20416;-78
2022/12/18 04:29:33;;;;;;;64.00;35.28;;;;;;;;;;4941802;29;20047;-78
2022/12/18 04:32:00;;;;;;;60.63;33.55;;;;;;;;;;4935187;29;20051;-78
2022/12/18 04:34:27;;;;;;;62.92;35.47;;;;;;;;;;4917324;29;20089;-79
2022/12/18 04:36:53;;;;;;;59.00;33.10;;;;;;;;;;4948423;29;20047;-77
2022/12/18 04:39:20;;;;;;;60.33;33.40;;;;;;;;;;4948335;28;20055;-78
2022/12/18 04:41:47;;;;;;;61.08;34.35;;;;;;;;;;4933624;29;20047;-78
2022/12/18 04:44:14;;;;;;;66.57;37.08;;;;;;;;;;4932177;29;20554;-78
2022/12/18 04:46:40;;;;;;;60.72;34.40;;;;;;;;;;4915391;28;20075;-78
2022/12/18 04:49:07;;;;;;;61.58;35.22;;;;;;;;;;4930217;29;20055;-78
2022/12/18 04:51:34;;;;;;;61.08;34.60;;;;;;;;;;4947013;28;20059;-78
2022/12/18 04:54:01;;;;;;;60.60;34.40;;;;;;;;;;4961728;28;20051;-77
2022/12/18 04:56:28;;;;;;;64.43;35.35;;;;;;;;;;4914879;29;20531;-77
2022/12/18 04:58:54;;;;;;;60.83;33.28;;;;;;;;;;4946144;29;20062;-77
2022/12/18 05:01:21;;;;;;;56.47;32.65;;;;;;;;;;4946168;28;20055;-77
2022/12/18 05:03:48;;;;;;;59.58;33.33;;;;;;;;;;4931255;29;20066;-77
2022/12/18 05:06:15;;;;;;;60.22;33.42;;;;;;;;;;4947836;29;21312;-77
2022/12/18 05:08:42;;;;;;;57.28;31.98;;;;;;;;;;4931674;29;20409;-77
2022/12/18 05:11:10;;;;;;;54.92;31.55;;;;;;;;;;4946354;28;20047;-78
2022/12/18 05:13:37;;;;;;;57.40;31.65;;;;;;;;;;4930933;29;20059;-78
2022/12/18 05:16:05;;;;;;;58.78;32.55;;;;;;;;;;4930836;29;20055;-78
2022/12/18 05:18:32;;;;;;;61.45;31.73;;;;;;;;;;4930577;29;20082;-78
2022/12/18 05:20:59;;;;;;;57.38;31.35;;;;;;;;;;4930019;29;20055;-78
2022/12/18 05:23:26;;;;;;;51.67;30.08;;;;;;;;;;4946403;28;20055;-78
2022/12/18 05:25:55;;;;;;;54.30;29.02;;;;;;;;;;4931529;29;20055;-77
2022/12/18 05:28:22;;;;;;;50.92;28.75;;;;;;;;;;4947279;28;20058;-77
2022/12/18 05:30:50;;;;;;;52.67;28.13;;;;;;;;;;4930718;29;20066;-78
2022/12/18 05:33:20;;;;;;;52.70;30.45;;;;;;;;;;4946059;28;20059;-78
2022/12/18 05:35:54;;;;;;;49.58;29.02;;;;;;;;;;4930667;29;20435;-77
2022/12/18 05:38:22;;;;;;;51.92;28.02;;;;;;;;;;4929575;29;20538;-77
2022/12/18 05:40:49;;;;;;;55.38;28.88;;;;;;;;;;4914694;29;20451;-78
2022/12/18 05:43:16;;;;;;;54.35;31.33;;;;;;;;;;4929729;29;20055;-78
2022/12/18 05:45:47;;;;;;;56.47;31.45;;;;;;;;;;4946173;29;20090;-77
2022/12/18 05:48:14;;;;;;;57.08;31.63;;;;;;;;;;4914425;29;20085;-77
2022/12/18 05:50:43;;;;;;;54.08;30.17;;;;;;;;;;4945801;28;20055;-77
2022/12/18 05:53:10;;;;;;;61.15;31.83;;;;;;;;;;4965810;28;20059;-77
2022/12/18 05:55:38;;;;;;;54.50;29.77;;;;;;;;;;4933164;29;20047;-77
2022/12/18 05:58:06;;;;;;;58.30;30.08;;;;;;;;;;4920756;29;20070;-77
2022/12/18 06:00:34;;;;;;;56.75;30.92;;;;;;;;;;4933514;29;20090;-78
2022/12/18 06:03:01;;;;;;;54.03;29.77;;;;;;;;;;4933677;29;20051;-77
2022/12/18 06:05:28;;;;;;;52.17;27.83;;;;;;;;;;4948906;29;20055;-77
2022/12/18 06:07:55;;;;;;;56.33;31.88;;;;;;;;;;4933107;28;20055;-77
2022/12/18 06:10:22;;;;;;;57.92;32.78;;;;;;;;;;4932923;29;20500;-77
2022/12/18 06:12:48;;;;;;;61.63;32.90;;;;;;;;;;4934559;29;20062;-79
2022/12/18 06:15:15;;;;;;;61.40;33.33;;;;;;;;;;4938425;29;20061;-79
2022/12/18 06:17:42;;;;;;;63.65;34.10;;;;;;;;;;4936191;29;20066;-79
2022/12/18 06:20:10;;;;;;;64.45;33.20;;;;;;;;;;4950933;28;20139;-80
2022/12/18 06:22:36;;;;;;;59.67;33.30;;;;;;;;;;4935405;29;20358;-79
2022/12/18 06:25:04;;;;;;;61.72;33.20;;;;;;;;;;4950895;29;20110;-80
2022/12/18 06:27:33;;;;;;;61.08;31.73;;;;;;;;;;4896291;28;20046;-78
2022/12/18 06:30:00;;;;;;;61.80;32.70;;;;;;;;;;4948533;29;20078;-79
2022/12/18 06:32:30;;;;;;;64.00;34.85;;;;;;;;;;4950530;28;20075;-79
2022/12/18 06:34:57;;;;;;;64.95;35.45;;;;;;;;;;4964768;28;20508;-79
2022/12/18 06:37:25;;;;;;;59.63;32.65;;;;;;;;;;4948780;29;20106;-79
2022/12/18 06:39:54;;;;;;;59.45;32.08;;;;;;;;;;4934737;29;20055;-79
2022/12/18 06:42:20;;;;;;;58.22;31.88;;;;;;;;;;4934678;29;20150;-79
2022/12/18 06:44:47;;;;;;;56.22;33.42;;;;;;;;;;4933696;29;20047;-79
2022/12/18 06:47:14;;;;;;;62.20;35.28;;;;;;;;;;4933972;29;20113;-79
2022/12/18 06:49:41;;;;;;;60.45;34.40;;;;;;;;;;4933532;29;21239;-79
2022/12/18 06:52:08;;;;;;;64.95;33.97;;;;;;;;;;4933294;29;20122;-79
2022/12/18 06:54:35;;;;;;;61.45;31.67;;;;;;;;;;4933309;29;20061;-80
2022/12/18 06:57:02;;;;;;;64.63;33.20;;;;;;;;;;4956671;29;20071;-78
2022/12/18 06:59:29;;;;;;;58.10;32.28;;;;;;;;;;4965637;28;20051;-78
2022/12/18 07:01:56;;;;;;;54.95;30.73;;;;;;;;;;4948391;28;20062;-78
2022/12/18 07:04:30;;;;;;;56.33;30.65;;;;;;;;;;4917150;28;20043;-79
2022/12/18 07:06:57;;;;;;;52.88;30.25;;;;;;;;;;4949665;29;20536;-78
2022/12/18 07:09:24;;;;;;;55.38;31.08;;;;;;;;;;4932950;29;20051;-78
2022/12/18 07:11:52;;;;;;;60.38;32.10;;;;;;;;;;4916670;29;20079;-79
2022/12/18 07:14:19;;;;;;;56.47;32.20;;;;;;;;;;4933590;29;20054;-79
2022/12/18 07:16:45;;;;;;;61.83;32.83;;;;;;;;;;4919369;29;20134;-79
2022/12/18 07:19:12;;;;;;;67.45;34.70;;;;;;;;;;4933881;29;20063;-81
2022/12/18 07:21:39;;;;;;;58.90;32.28;;;;;;;;;;4952167;29;20054;-80
2022/12/18 07:24:06;;;;;;;62.17;33.58;;;;;;;;;;4923086;29;20073;-77
2022/12/18 07:26:33;;;;;;;63.13;33.05;;;;;;;;;;4955680;28;20066;-80
2022/12/18 07:28:59;;;;;;;56.28;30.88;;;;;;;;;;4939733;29;20118;-80
2022/12/18 07:31:27;;;;;;;61.55;31.55;;;;;;;;;;4956065;28;20058;-79
2022/12/18 07:33:54;;;;;;;63.08;33.40;;;;;;;;;;4938790;28;21147;-81
2022/12/18 07:36:20;;;;;;;62.28;32.35;;;;;;;;;;4936989;29;20427;-79
2022/12/18 07:38:48;;;;;;;66.68;33.55;;;;;;;;;;4937597;29;20051;-83
2022/12/18 07:41:16;;;;;;;64.20;33.72;;;;;;;;;;4921908;29;20106;-81
2022/12/18 07:43:42;;;;;;;63.13;33.17;;;;;;;;;;4953537;28;20086;-81
2022/12/18 07:46:11;;;;;;;65.68;35.60;;;;;;;;;;4936644;28;20583;-81
2022/12/18 07:48:40;;;;;;;61.95;33.83;;;;;;;;;;4938745;29;20043;-81
2022/12/18 07:51:07;;;;;;;63.25;34.08;;;;;;;;;;4952636;28;20055;-80
2022/12/18 07:53:35;;;;;;;64.63;33.53;;;;;;;;;;4937438;29;20668;-81
2022/12/18 07:56:05;;;;;;;65.38;34.25;;;;;;;;;;4938244;29;20134;-81
2022/12/18 07:58:51;;;;;;;61.85;33.00;;;;;;;;;;4953302;29;20059;-81
2022/12/18 08:01:18;;;;;;;64.10;33.45;;;;;;;;;;4953120;28;20807;-81
2022/12/18 08:03:46;;;;;;;62.55;34.83;;;;;;;;;;4953376;29;20065;-81
2022/12/18 08:06:13;;;;;;;64.50;34.83;;;;;;;;;;4936415;29;20043;-81
2022/12/18 08:08:42;;;;;;;68.50;37.47;;;;;;;;;;4936414;29;20051;-81
2022/12/18 08:11:08;;;;;;;66.10;35.60;;;;;;;;;;4955872;29;20146;-81
2022/12/18 08:13:35;;;;;;;70.72;37.40;;;;;;;;;;4949403;28;20086;-81
2022/12/18 08:16:05;;;;;;;66.68;35.50;;;;;;;;;;4937402;29;20055;-81
2022/12/18 08:18:35;;;;;;;69.68;36.13;;;;;;;;;;4929584;29;20059;-82
2022/12/18 08:21:13;;;;;;;69.30;37.60;;;;;;;;;;4941016;29;20061;-81
2022/12/18 08:23:40;;;;;;;67.20;37.50;;;;;;;;;;4936895;28;20047;-80
2022/12/18 08:26:12;;;;;;;70.95;38.17;;;;;;;;;;4954973;29;20511;-79
2022/12/18 08:28:40;;;;;;;63.03;35.47;;;;;;;;;;4918551;29;20074;-81
2022/12/18 08:31:07;;;;;;;71.88;37.42;;;;;;;;;;4934339;29;20110;-78
2022/12/18 08:33:34;;;;;;;70.15;37.85;;;;;;;;;;4958973;28;20082;-80
2022/12/18 08:36:01;;;;;;;69.22;36.20;;;;;;;;;;4935417;28;20055;-80
2022/12/18 08:38:28;;;;;;;71.78;39.80;;;;;;;;;;4936270;29;20062;-81
2022/12/18 08:41:00;;;;;;;65.15;34.92;;;;;;;;;;4935362;29;20055;-80
2022/12/18 08:46:12;;;;;;;68.45;35.53;;;;;;;;;;4950386;28;20059;-81
2022/12/18 08:48:39;;;;;;;62.92;33.30;;;;;;;;;;4935281;29;20074;-80
2022/12/18 08:51:06;;;;;;;62.70;34.83;;;;;;;;;;4936426;29;20487;-79
2022/12/18 08:53:32;;;;;;;63.95;35.47;;;;;;;;;;4951184;29;20055;-79
2022/12/18 08:56:02;;;;;;;65.95;36.10;;;;;;;;;;4938013;29;20051;-79
2022/12/18 08:58:29;;;;;;;61.90;32.22;;;;;;;;;;4941552;29;20055;-79
2022/12/18 09:01:03;;;;;;;67.63;36.38;;;;;;;;;;4941496;28;20827;-80
2022/12/18 09:03:30;;;;;;;65.80;35.38;;;;;;;;;;4931987;29;20405;-79
2022/12/18 09:05:57;;;;;;;72.47;35.45;;;;;;;;;;4934753;29;20058;-78
2022/12/18 09:08:24;;;;;;;66.95;35.38;;;;;;;;;;4934327;29;20047;-79
2022/12/18 09:10:51;;;;;;;68.50;34.58;;;;;;;;;;4951708;29;20058;-79
2022/12/18 09:13:19;;;;;;;65.78;35.13;;;;;;;;;;4933325;28;20918;-79
2022/12/18 09:15:48;;;;;;;64.35;33.83;;;;;;;;;;4930400;29;20051;-79
2022/12/18 09:18:17;;;;;;;65.03;34.00;;;;;;;;;;4934176;29;20070;-79
2022/12/18 09:20:45;;;;;;;62.95;33.15;;;;;;;;;;4934550;29;20047;-79
2022/12/18 09:23:13;;;;;;;65.85;34.78;;;;;;;;;;4935068;29;20054;-78
2022/12/18 09:25:40;;;;;;;67.22;33.58;;;;;;;;;;4948858;28;20821;-79
2022/12/18 09:28:13;;;;;;;67.57;35.03;;;;;;;;;;4932719;29;20122;-79
2022/12/18 09:30:42;;;;;;;51.55;26.35;;;;;;;;;;4935674;29;20086;-79
2022/12/18 09:33:10;;;;;;;62.25;32.35;;;;;;;;;;4935352;29;20106;-79
2022/12/18 09:35:38;;;;;;;61.72;31.45;;;;;;;;;;4933481;29;20511;-78
2022/12/18 09:38:06;;;;;;;55.97;29.98;;;;;;;;;;4949502;29;20051;-78
2022/12/18 09:40:36;;;;;;;66.65;33.55;;;;;;;;;;4949528;28;20134;-78
2022/12/18 09:43:05;;;;;;;58.50;30.20;;;;;;;;;;4935024;29;20059;-79
2022/12/18 09:45:46;;;;;;;58.45;30.25;;;;;;;;;;4950471;29;20464;-79
2022/12/18 09:48:30;;;;;;;62.80;30.83;;;;;;;;;;4917922;29;20056;-78
2022/12/18 09:51:01;;;;;;;57.08;29.70;;;;;;;;;;4947840;28;20059;-79
2022/12/18 09:53:32;;;;;;;64.63;31.88;;;;;;;;;;4948216;29;20090;-79
2022/12/18 09:56:02;;;;;;;59.25;29.52;;;;;;;;;;4948621;29;20066;-79
2022/12/18 09:58:36;;;;;;;62.97;30.88;;;;;;;;;;4919853;29;20108;-79
2022/12/18 10:01:20;;;;;;;60.40;31.60;;;;;;;;;;4939204;29;20054;-79
2022/12/18 10:03:47;;;;;;;57.88;29.00;;;;;;;;;;4951668;28;20058;-78
2022/12/18 10:06:41;;;;;;;61.33;30.48;;;;;;;;;;4941769;29;20059;-78
2022/12/18 10:09:37;;;;;;;63.45;31.95;;;;;;;;;;4934721;29;20059;-78
2022/12/18 10:12:19;;;;;;;61.00;29.50;;;;;;;;;;4948166;29;20066;-78
2022/12/18 10:15:07;;;;;;;55.30;28.70;;;;;;;;;;4947394;28;20055;-77
2022/12/18 10:17:55;;;;;;;57.55;29.23;;;;;;;;;;4932217;29;20059;-78
2022/12/18 10:20:35;;;;;;;56.45;28.58;;;;;;;;;;4932348;29;20055;-76
2022/12/18 10:23:27;;;;;;;63.58;29.50;;;;;;;;;;4932646;29;20058;-79
2022/12/18 10:26:05;;;;;;;62.33;29.20;;;;;;;;;;4947592;28;20043;-77
2022/12/18 10:28:42;;;;;;;56.92;26.95;;;;;;;;;;4932224;28;20059;-78
2022/12/18 10:31:17;;;;;;;55.67;28.83;;;;;;;;;;4932616;29;20059;-78
2022/12/18 10:33:44;;;;;;;54.22;25.88;;;;;;;;;;4932459;29;20090;-78
2022/12/18 10:36:11;;;;;;;58.08;27.30;;;;;;;;;;4935592;29;20098;-77
2022/12/18 10:38:38;;;;;;;61.33;30.48;;;;;;;;;;4940253;29;20763;-78
2022/12/18 10:41:25;;;;;;;63.00;31.92;;;;;;;;;;4950699;29;20055;-78
2022/12/18 10:44:19;;;;;;;66.80;32.83;;;;;;;;;;4938344;29;20055;-78
2022/12/18 10:46:48;;;;;;;64.85;32.97;;;;;;;;;;4943950;28;20055;-78
2022/12/18 10:49:46;;;;;;;64.90;32.33;;;;;;;;;;4953088;29;20082;-77
2022/12/18 10:52:19;;;;;;;60.78;31.85;;;;;;;;;;4934542;29;20098;-78
2022/12/18 10:54:58;;;;;;;58.97;30.10;;;;;;;;;;4952382;29;20772;-79
2022/12/18 10:57:36;;;;;;;57.55;31.05;;;;;;;;;;4933102;29;20067;-77
2022/12/18 11:00:24;;;;;;;61.65;31.58;;;;;;;;;;4919238;29;20055;-77
2022/12/18 11:02:52;;;;;;;57.17;30.00;;;;;;;;;;4934271;29;20142;-77
2022/12/18 11:05:45;;;;;;;53.95;28.65;;;;;;;;;;4949566;29;20175;-77
2022/12/18 11:08:21;;;;;;;60.28;32.00;;;;;;;;;;4930110;29;20099;-76
2022/12/18 11:10:47;;;;;;;60.72;30.00;;;;;;;;;;4933256;29;20696;-79
2022/12/18 11:13:19;;;;;;;63.42;32.40;;;;;;;;;;4935328;29;20066;-80
2022/12/18 11:15:45;;;;;;;62.05;30.35;;;;;;;;;;4950687;29;20066;-79
2022/12/18 11:18:18;;;;;;;57.75;32.28;;;;;;;;;;4919469;29;20114;-79
2022/12/18 11:20:53;;;;;;;52.65;28.20;;;;;;;;;;4950819;28;20066;-79
2022/12/18 11:23:24;;;;;;;48.45;25.50;;;;;;;;;;4921907;29;20519;-79
2022/12/18 11:25:57;;;;;;;49.35;26.90;;;;;;;;;;4935502;29;20055;-79
2022/12/18 11:28:40;;;;;;;50.30;25.67;;;;;;;;;;4936454;29;20058;-80
2022/12/18 11:31:22;;;;;;;49.78;25.27;;;;;;;;;;4939761;28;20055;-80
2022/12/18 11:33:56;;;;;;;45.97;24.92;;;;;;;;;;4935149;29;20055;-78
2022/12/18 11:36:44;;;;;;;54.92;26.70;;;;;;;;;;4950379;29;20059;-79
2022/12/18 11:39:30;;;;;;;51.65;25.48;;;;;;;;;;4934099;29;20069;-79
2022/12/18 11:42:24;;;;;;;47.40;24.73;;;;;;;;;;4937558;29;20047;-79
2022/12/18 11:45:12;;;;;;;48.63;23.40;;;;;;;;;;4945468;29;20491;-80
2022/12/18 11:47:42;;;;;;;44.80;22.30;;;;;;;;;;4951798;29;20078;-79
2022/12/18 11:50:30;;;;;;;40.08;20.25;;;;;;;;;;4952139;28;20051;-79
2022/12/18 11:52:56;;;;;;;40.90;21.27;;;;;;;;;;4949693;29;21310;-79
2022/12/18 11:55:41;;;;;;;40.75;20.95;;;;;;;;;;4937322;29;20090;-78
2022/12/18 11:58:27;;;;;;;42.10;21.05;;;;;;;;;;4934994;28;20047;-79
2022/12/18 12:01:29;;;;;;;40.80;19.73;;;;;;;;;;4935581;29;20058;-79
2022/12/18 12:04:14;;;;;;;40.03;18.40;;;;;;;;;;4914041;29;20115;-79
2022/12/18 12:06:59;;;;;;;40.25;21.10;;;;;;;;;;4952927;28;20058;-79
2022/12/18 12:09:32;;;;;;;43.13;21.05;;;;;;;;;;4936581;29;20047;-79
2022/12/18 12:12:27;;;;;;;40.85;19.92;;;;;;;;;;4952652;29;21231;-80
2022/12/18 12:15:10;;;;;;;39.03;19.45;;;;;;;;;;4952848;28;20059;-80
2022/12/18 12:17:54;;;;;;;37.72;18.85;;;;;;;;;;4953722;29;20066;-80
2022/12/18 12:20:52;;;;;;;34.85;18.42;;;;;;;;;;4937426;29;20047;-81
2022/12/18 12:23:28;;;;;;;38.42;19.23;;;;;;;;;;4954178;28;20097;-80
2022/12/18 12:26:11;;;;;;;41.55;20.17;;;;;;;;;;4953753;28;20440;-81
2022/12/18 12:28:46;;;;;;;;;;;;;;;;;;4952003;29;20085;-81
2022/12/18 12:31:18;;;;;;;38.60;18.98;;;;;;;;;;4954005;29;19922;-80
2022/12/18 12:34:05;;;;;;;38.17;19.85;;;;;;;;;;4937833;29;20097;-81
2022/12/18 12:37:01;;;;;;;43.17;21.65;;;;;;;;;;4940726;29;20753;-80
2022/12/18 12:39:40;;;;;;;39.22;19.73;;;;;;;;;;4951270;29;20055;-81
2022/12/18 12:45:21;;;;;;;38.65;19.52;;;;;;;;;;4952765;28;20058;-81
2022/12/18 12:47:48;;;;;;;41.15;19.40;;;;;;;;;;4927540;29;21241;-80
2022/12/18 12:50:17;;;;;;;39.03;19.55;;;;;;;;;;4936526;29;20051;-81
2022/12/18 12:52:46;;;;;;;38.08;19.95;;;;;;;;;;4928504;29;20066;-81
2022/12/18 12:55:22;;;;;;;39.08;20.30;;;;;;;;;;4945981;29;20098;-81
2022/12/18 12:58:03;;;;;;;40.33;23.02;;;;;;;;;;4951823;28;20043;-81
2022/12/18 13:00:35;;;;;;;63.67;30.17;;;;;;;;;;4950752;28;20126;-81
2022/12/18 13:03:15;;;;;;;62.63;31.50;;;;;;;;;;4953455;28;20063;-82
2022/12/18 13:05:46;;;;;;;57.55;29.73;;;;;;;;;;4931751;29;20055;-82
2022/12/18 13:08:26;;;;;;;53.08;29.13;;;;;;;;;;4936460;29;20543;-79
2022/12/18 13:13:49;;;;;;;49.20;27.63;;;;;;;;;;4938788;29;20067;-79
2022/12/18 13:16:21;;;;;;;49.95;27.58;;;;;;;;;;4958718;28;20051;-80
2022/12/18 13:18:49;;;;;;;46.83;26.25;;;;;;;;;;4934163;29;20066;-79
2022/12/18 13:21:29;;;;;;;47.65;25.02;;;;;;;;;;4932803;29;20044;-79
2022/12/18 13:23:57;;;;;;;47.53;25.83;;;;;;;;;;4933566;29;20062;-79
2022/12/18 13:26:23;;;;;;;46.58;24.63;;;;;;;;;;4934156;29;20051;-79
2022/12/18 13:28:56;;;;;;;45.95;24.52;;;;;;;;;;4924509;28;20427;-79
2022/12/18 13:31:41;;;;;;;47.13;25.52;;;;;;;;;;4930240;29;20066;-79
2022/12/18 13:34:22;;;;;;;50.67;25.92;;;;;;;;;;4947474;29;20504;-79
2022/12/18 13:36:59;;;;;;;45.03;24.00;;;;;;;;;;4949694;29;20047;-80
2022/12/18 13:39:33;;;;;;;48.07;25.03;;;;;;;;;;4949958;28;20053;-80
2022/12/18 13:42:05;;;;;;;46.65;25.50;;;;;;;;;;4934047;29;20307;-79
2022/12/18 13:44:33;;;;;;;48.33;25.65;;;;;;;;;;4947818;29;20094;-80
2022/12/18 13:47:35;;;;;;;47.33;27.33;;;;;;;;;;4949923;29;20069;-80
2022/12/18 13:50:10;;;;;;;47.47;25.15;;;;;;;;;;4934723;29;20058;-81
2022/12/18 13:52:37;;;;;;;59.08;30.10;;;;;;;;;;4949689;29;20059;-80
2022/12/18 13:55:07;;;;;;;48.53;27.52;;;;;;;;;;4951012;28;20051;-80
2022/12/18 13:57:38;;;;;;;50.13;26.60;;;;;;;;;;4949668;28;20063;-80
2022/12/18 14:00:25;;;;;;;48.33;26.15;;;;;;;;;;4949198;29;20056;-80
2022/12/18 14:02:52;;;;;;;53.78;27.65;;;;;;;;;;4933489;29;20051;-80
2022/12/18 14:05:27;;;;;;;50.88;26.42;;;;;;;;;;4948399;29;21079;-80
2022/12/18 14:07:55;;;;;;;47.53;25.83;;;;;;;;;;4933343;29;20067;-80
2022/12/18 14:10:22;;;;;;;51.22;27.55;;;;;;;;;;4950159;29;20743;-80
2022/12/18 14:13:10;;;;;;;59.08;29.13;;;;;;;;;;4925795;29;20106;-80
2022/12/18 14:15:45;;;;;;;54.95;28.15;;;;;;;;;;4953195;29;20664;-80
2022/12/18 14:18:26;;;;;;;54.17;28.77;;;;;;;;;;4937534;29;20094;-80
2022/12/18 14:20:56;;;;;;;60.65;29.73;;;;;;;;;;4953774;28;20058;-79
2022/12/18 14:23:35;;;;;;;57.05;29.85;;;;;;;;;;4936564;29;20043;-79
2022/12/18 14:26:19;;;;;;;54.95;30.27;;;;;;;;;;4933087;28;20090;-80
2022/12/18 14:28:46;;;;;;;50.72;27.23;;;;;;;;;;4950889;28;20047;-80
2022/12/18 14:31:21;;;;;;;53.78;27.42;;;;;;;;;;4935211;29;20055;-80
2022/12/18 14:33:49;;;;;;;52.20;25.30;;;;;;;;;;4935275;29;20083;-80
2022/12/18 14:36:18;;;;;;;47.50;24.35;;;;;;;;;;4935353;29;20063;-80
2022/12/18 14:38:49;;;;;;;47.25;23.80;;;;;;;;;;4935153;29;20487;-80
2022/12/18 14:41:17;;;;;;;45.45;23.17;;;;;;;;;;4951032;28;20051;-80
2022/12/18 14:43:47;;;;;;;50.05;25.98;;;;;;;;;;4934794;29;20590;-80
2022/12/18 14:46:35;;;;;;;47.05;24.27;;;;;;;;;;4966976;28;20106;-77
2022/12/18 14:49:04;;;;;;;44.42;23.55;;;;;;;;;;4951129;29;20054;-79
2022/12/18 14:51:34;;;;;;;51.33;24.65;;;;;;;;;;4951935;29;20059;-80
2022/12/18 14:54:09;;;;;;;43.00;22.27;;;;;;;;;;4936035;29;20059;-80
2022/12/18 14:56:43;;;;;;;43.30;21.25;;;;;;;;;;4936472;29;20059;-80
2022/12/18 14:59:16;;;;;;;45.30;24.25;;;;;;;;;;4934438;29;20051;-80
2022/12/18 15:02:01;;;;;;;42.38;20.73;;;;;;;;;;4921810;29;20081;-80